createdAt,value
2018-04-09T00:01:33.598Z,7.10
2018-04-09T00:04:01.004Z,7.10
2018-04-09T00:06:27.337Z,7.10
2018-04-09T00:08:53.709Z,7.00
2018-04-09T00:11:20.743Z,6.90
2018-04-09T00:13:47.740Z,6.90
2018-04-09T00:16:14.049Z,6.90
2018-04-09T00:18:40.319Z,6.90
2018-04-09T00:21:06.591Z,6.80
2018-04-09T00:23:33.639Z,6.70
2018-04-09T00:26:00.696Z,6.80
2018-04-09T00:28:27.766Z,6.80
2018-04-09T00:30:54.036Z,6.70
2018-04-09T00:33:20.328Z,6.70
2018-04-09T00:35:46.863Z,6.70
2018-04-09T00:38:13.171Z,6.70
2018-04-09T00:40:39.461Z,6.60
2018-04-09T00:43:05.766Z,6.60
2018-04-09T00:45:32.113Z,6.60
2018-04-09T00:47:58.427Z,6.60
2018-04-09T00:50:24.716Z,6.60
2018-04-09T00:52:51.714Z,6.60
2018-04-09T00:55:18.020Z,6.60
2018-04-09T00:57:44.321Z,6.60
2018-04-09T01:00:11.307Z,6.60
2018-04-09T01:02:37.633Z,6.60
2018-04-09T01:05:04.337Z,6.60
2018-04-09T01:07:31.388Z,6.50
2018-04-09T01:09:58.437Z,6.50
2018-04-09T01:12:25.477Z,6.50
2018-04-09T01:14:51.769Z,6.50
2018-04-09T01:17:18.056Z,6.40
2018-04-09T01:19:45.125Z,6.40
2018-04-09T01:22:11.522Z,6.40
2018-04-09T01:24:38.568Z,6.40
2018-04-09T01:27:05.551Z,6.40
2018-04-09T01:29:31.883Z,6.30
2018-04-09T01:31:58.185Z,6.30
2018-04-09T01:34:25.342Z,6.20
2018-04-09T01:36:52.383Z,6.20
2018-04-09T01:39:19.419Z,6.20
2018-04-09T01:41:45.696Z,6.10
2018-04-09T01:44:12.045Z,6.10
2018-04-09T01:46:38.323Z,6.00
2018-04-09T01:49:05.390Z,5.90
2018-04-09T01:51:31.748Z,5.90
2018-04-09T01:53:58.014Z,5.90
2018-04-09T01:56:24.323Z,5.90
2018-04-09T01:58:50.642Z,5.80
2018-04-09T02:01:16.959Z,5.70
2018-04-09T02:03:43.241Z,5.80
2018-04-09T02:06:10.247Z,5.80
2018-04-09T02:08:36.538Z,5.80
2018-04-09T02:11:03.591Z,5.70
2018-04-09T02:13:30.606Z,5.70
2018-04-09T02:15:58.378Z,5.60
2018-04-09T02:18:24.659Z,5.60
2018-04-09T02:20:51.108Z,5.70
2018-04-09T02:23:17.396Z,5.60
2018-04-09T02:25:43.689Z,5.60
2018-04-09T02:28:09.961Z,5.50
2018-04-09T02:30:36.278Z,5.50
2018-04-09T02:33:03.336Z,5.40
2018-04-09T02:35:30.418Z,5.40
2018-04-09T02:37:56.693Z,5.40
2018-04-09T02:40:23.756Z,5.30
2018-04-09T02:42:50.817Z,5.30
2018-04-09T02:45:17.124Z,5.20
2018-04-09T02:47:44.193Z,5.20
2018-04-09T02:50:10.480Z,5.20
2018-04-09T02:52:37.021Z,5.20
2018-04-09T02:55:03.272Z,5.20
2018-04-09T02:57:31.181Z,5.30
2018-04-09T02:59:57.478Z,5.20
2018-04-09T03:02:24.486Z,5.20
2018-04-09T03:04:50.752Z,5.20
2018-04-09T03:07:17.791Z,5.20
2018-04-09T03:09:44.852Z,5.20
2018-04-09T03:12:11.135Z,5.10
2018-04-09T03:14:37.411Z,5.10
2018-04-09T03:17:04.430Z,5.10
2018-04-09T03:19:30.730Z,5.00
2018-04-09T03:21:56.992Z,5.10
2018-04-09T03:24:23.247Z,5.10
2018-04-09T03:26:50.299Z,5.00
2018-04-09T03:29:17.352Z,5.00
2018-04-09T03:31:43.847Z,4.90
2018-04-09T03:34:10.102Z,4.90
2018-04-09T03:36:37.148Z,4.90
2018-04-09T03:39:04.174Z,4.90
2018-04-09T03:41:30.565Z,4.80
2018-04-09T03:43:56.850Z,4.90
2018-04-09T03:46:23.877Z,4.80
2018-04-09T03:48:50.180Z,4.80
2018-04-09T03:51:16.467Z,4.80
2018-04-09T03:53:43.720Z,4.80
2018-04-09T03:56:10.747Z,4.80
2018-04-09T03:58:37.029Z,4.80
2018-04-09T04:01:03.319Z,4.80
2018-04-09T04:03:29.632Z,4.70
2018-04-09T04:05:55.886Z,4.70
2018-04-09T04:08:22.936Z,4.70
2018-04-09T04:10:50.024Z,4.60
2018-04-09T04:13:17.216Z,4.60
2018-04-09T04:16:02.921Z,4.50
2018-04-09T04:18:46.593Z,4.50
2018-04-09T04:21:31.935Z,4.50
2018-04-09T04:23:58.979Z,4.50
2018-04-09T04:26:26.463Z,4.50
2018-04-09T04:28:52.702Z,4.60
2018-04-09T04:31:19.001Z,4.60
2018-04-09T04:33:46.084Z,4.70
2018-04-09T04:36:12.389Z,4.60
2018-04-09T04:38:39.412Z,4.70
2018-04-09T04:41:06.506Z,4.70
2018-04-09T04:43:32.864Z,4.70
2018-04-09T04:45:59.164Z,4.70
2018-04-09T04:48:25.587Z,4.80
2018-04-09T04:50:51.916Z,4.80
2018-04-09T04:53:18.936Z,5.00
2018-04-09T04:55:45.937Z,5.00
2018-04-09T04:58:12.212Z,5.00
2018-04-09T05:00:39.995Z,5.20
2018-04-09T05:03:07.126Z,5.20
2018-04-09T05:05:34.877Z,5.30
2018-04-09T05:08:01.133Z,5.30
2018-04-09T05:10:27.761Z,5.50
2018-04-09T05:12:54.086Z,5.60
2018-04-09T05:15:20.391Z,5.70
2018-04-09T05:17:46.647Z,5.80
2018-04-09T05:20:12.939Z,6.00
2018-04-09T05:22:39.248Z,6.20
2018-04-09T05:25:05.571Z,6.40
2018-04-09T05:27:32.559Z,6.70
2018-04-09T05:29:58.828Z,6.70
2018-04-09T05:32:25.081Z,6.70
2018-04-09T05:34:52.136Z,6.80
2018-04-09T05:37:18.404Z,6.80
2018-04-09T05:39:45.566Z,6.90
2018-04-09T05:42:11.900Z,7.00
2018-04-09T05:44:38.227Z,7.00
2018-04-09T05:47:04.541Z,7.00
2018-04-09T05:49:30.863Z,7.20
2018-04-09T05:51:57.139Z,7.40
2018-04-09T05:54:24.167Z,7.80
2018-04-09T05:56:51.203Z,7.90
2018-04-09T05:59:17.711Z,7.90
2018-04-09T06:01:44.163Z,8.10
2018-04-09T06:04:10.473Z,8.20
2018-04-09T06:06:36.748Z,8.20
2018-04-09T06:09:03.172Z,8.20
2018-04-09T06:11:29.842Z,8.40
2018-04-09T06:13:56.867Z,8.80
2018-04-09T06:16:23.143Z,8.80
2018-04-09T06:18:49.514Z,8.80
2018-04-09T06:21:15.796Z,8.80
2018-04-09T06:23:42.814Z,9.30
2018-04-09T06:26:09.437Z,9.30
2018-04-09T06:28:35.746Z,9.20
2018-04-09T06:31:02.193Z,9.40
2018-04-09T06:33:28.473Z,9.60
2018-04-09T06:35:55.673Z,9.90
2018-04-09T06:38:21.974Z,9.90
2018-04-09T06:40:48.288Z,9.90
2018-04-09T06:43:15.295Z,10.20
2018-04-09T06:45:41.623Z,10.10
2018-04-09T06:48:07.945Z,10.20
2018-04-09T06:50:34.220Z,10.60
2018-04-09T06:53:01.234Z,11.00
2018-04-09T06:55:27.525Z,11.00
2018-04-09T06:57:53.797Z,11.20
2018-04-09T07:00:20.117Z,11.40
2018-04-09T07:02:46.448Z,11.60
2018-04-09T07:05:12.735Z,11.60
2018-04-09T07:07:39.008Z,11.40
2018-04-09T07:10:05.316Z,11.40
2018-04-09T07:12:31.586Z,11.40
2018-04-09T07:14:57.923Z,11.70
2018-04-09T07:17:25.040Z,12.30
2018-04-09T07:19:51.369Z,12.60
2018-04-09T07:22:17.686Z,12.50
2018-04-09T07:24:43.940Z,12.70
2018-04-09T07:27:10.249Z,13.00
2018-04-09T07:29:36.563Z,13.00
2018-04-09T07:32:02.821Z,13.30
2018-04-09T07:34:29.134Z,13.20
2018-04-09T07:36:55.444Z,13.30
2018-04-09T07:39:22.481Z,13.50
2018-04-09T07:41:49.543Z,13.90
2018-04-09T07:44:15.904Z,13.90
2018-04-09T07:46:42.228Z,13.50
2018-04-09T07:49:08.508Z,13.60
2018-04-09T07:51:34.776Z,13.80
2018-04-09T07:54:01.974Z,14.30
2018-04-09T07:56:28.280Z,14.20
2018-04-09T07:58:54.586Z,14.50
2018-04-09T08:01:20.923Z,14.70
2018-04-09T08:03:47.380Z,14.90
2018-04-09T08:06:13.754Z,15.10
2018-04-09T08:08:40.006Z,15.20
2018-04-09T08:11:07.069Z,15.10
2018-04-09T08:13:33.374Z,15.20
2018-04-09T08:16:00.398Z,15.20
2018-04-09T08:18:26.857Z,15.10
2018-04-09T08:20:53.853Z,15.50
2018-04-09T08:23:21.093Z,15.50
2018-04-09T08:25:47.395Z,15.10
2018-04-09T08:28:13.639Z,15.20
2018-04-09T08:30:39.952Z,15.40
2018-04-09T08:33:07.072Z,15.80
2018-04-09T08:35:33.393Z,15.80
2018-04-09T08:37:59.684Z,15.60
2018-04-09T08:40:25.992Z,15.70
2018-04-09T08:42:53.030Z,15.90
2018-04-09T08:45:20.018Z,15.80
2018-04-09T08:47:46.373Z,15.80
2018-04-09T08:50:13.250Z,15.80
2018-04-09T08:52:40.283Z,16.10
2018-04-09T08:55:06.719Z,16.10
2018-04-09T08:57:34.564Z,16.40
2018-04-09T09:00:00.860Z,16.30
2018-04-09T09:02:31.411Z,16.40
2018-04-09T09:04:57.749Z,16.70
2018-04-09T09:07:24.056Z,17.20
2018-04-09T09:09:50.402Z,17.20
2018-04-09T09:12:16.984Z,17.40
2018-04-09T09:14:43.466Z,17.30
2018-04-09T09:17:09.805Z,17.30
2018-04-09T09:19:36.044Z,17.60
2018-04-09T09:22:02.327Z,17.70
2018-04-09T09:24:29.329Z,18.10
2018-04-09T09:26:55.643Z,18.00
2018-04-09T09:29:22.017Z,18.30
2018-04-09T09:31:50.825Z,18.40
2018-04-09T09:34:17.875Z,18.60
2018-04-09T09:36:44.956Z,18.60
2018-04-09T09:39:11.224Z,18.60
2018-04-09T09:41:38.264Z,18.40
2018-04-09T09:44:04.572Z,18.50
2018-04-09T09:46:30.889Z,18.40
2018-04-09T09:48:57.332Z,18.40
2018-04-09T09:51:23.641Z,18.40
2018-04-09T09:53:49.975Z,18.20
2018-04-09T09:56:16.586Z,18.40
2018-04-09T09:58:43.647Z,18.60
2018-04-09T10:01:10.665Z,19.00
2018-04-09T10:03:37.217Z,19.00
2018-04-09T10:06:04.268Z,19.20
2018-04-09T10:08:31.295Z,19.30
2018-04-09T10:10:58.345Z,19.20
2018-04-09T10:13:25.384Z,19.20
2018-04-09T10:15:51.680Z,19.20
2018-04-09T10:18:18.041Z,19.20
2018-04-09T10:20:44.404Z,19.10
2018-04-09T10:23:11.484Z,19.40
2018-04-09T10:25:38.544Z,19.30
2018-04-09T10:28:04.830Z,19.50
2018-04-09T10:30:32.385Z,19.80
2018-04-09T10:32:58.690Z,19.80
2018-04-09T10:35:25.285Z,20.00
2018-04-09T10:37:51.567Z,20.00
2018-04-09T10:40:17.897Z,20.20
2018-04-09T10:42:44.944Z,20.10
2018-04-09T10:45:11.245Z,20.10
2018-04-09T10:47:37.697Z,20.30
2018-04-09T10:50:03.977Z,20.50
2018-04-09T10:52:31.851Z,20.50
2018-04-09T10:54:58.195Z,20.40
2018-04-09T10:57:24.564Z,20.60
2018-04-09T10:59:50.880Z,20.60
2018-04-09T11:02:17.154Z,20.70
2018-04-09T11:04:44.278Z,20.70
2018-04-09T11:07:10.621Z,20.70
2018-04-09T11:09:37.823Z,21.00
2018-04-09T11:12:04.858Z,20.90
2018-04-09T11:14:31.260Z,20.80
2018-04-09T11:16:58.301Z,21.00
2018-04-09T11:19:24.621Z,21.00
2018-04-09T11:21:50.916Z,21.20
2018-04-09T11:24:17.243Z,21.10
2018-04-09T11:26:44.479Z,21.10
2018-04-09T11:29:11.516Z,21.50
2018-04-09T11:31:38.866Z,21.30
2018-04-09T11:34:05.910Z,21.70
2018-04-09T11:36:32.974Z,22.30
2018-04-09T11:39:00.263Z,23.40
2018-04-09T11:41:26.615Z,23.30
2018-04-09T11:43:52.946Z,25.10
2018-04-09T11:46:19.237Z,26.30
2018-04-09T11:48:45.566Z,28.10
2018-04-09T11:51:13.415Z,29.30
2018-04-09T11:53:40.437Z,31.00
2018-04-09T11:56:06.733Z,30.90
2018-04-09T11:58:33.052Z,33.00
2018-04-09T12:00:59.360Z,34.50
2018-04-09T12:03:26.365Z,36.40
2018-04-09T12:05:52.673Z,36.30
2018-04-09T12:08:18.943Z,35.70
2018-04-09T12:10:46.324Z,36.90
2018-04-09T12:13:13.398Z,39.40
2018-04-09T12:15:39.717Z,39.30
2018-04-09T12:18:06.698Z,38.30
2018-04-09T12:20:32.993Z,38.20
2018-04-09T12:23:10.653Z,36.50
2018-04-09T12:25:37.908Z,38.00
2018-04-09T12:28:04.181Z,39.00
2018-04-09T12:30:30.434Z,37.60
2018-04-09T12:32:56.714Z,37.10
2018-04-09T12:35:24.517Z,39.50
2018-04-09T12:37:50.824Z,39.50
2018-04-09T12:40:17.108Z,40.10
2018-04-09T12:42:44.311Z,38.50
2018-04-09T12:45:11.538Z,38.70
2018-04-09T12:47:39.600Z,38.80
2018-04-09T12:50:05.895Z,38.80
2018-04-09T12:52:32.178Z,38.70
2018-04-09T12:54:59.220Z,39.10
2018-04-09T12:57:25.739Z,39.10
2018-04-09T12:59:52.143Z,39.60
2018-04-09T13:02:18.597Z,38.20
2018-04-09T13:04:44.953Z,37.60
2018-04-09T13:07:12.005Z,37.70
2018-04-09T13:09:38.256Z,37.70
2018-04-09T13:12:04.525Z,39.40
2018-04-09T13:14:31.737Z,38.40
2018-04-09T13:16:58.143Z,40.20
2018-04-09T13:19:25.210Z,41.90
2018-04-09T13:21:51.538Z,41.80
2018-04-09T13:24:18.573Z,43.00
2018-04-09T13:26:44.914Z,42.90
2018-04-09T13:29:11.999Z,39.60
2018-04-09T13:31:38.236Z,39.50
2018-04-09T13:34:05.440Z,36.40
2018-04-09T13:36:32.504Z,40.10
2018-04-09T13:38:59.605Z,40.00
2018-04-09T13:41:25.883Z,40.70
2018-04-09T13:43:52.139Z,41.10
2018-04-09T13:46:18.463Z,42.50
2018-04-09T13:48:45.654Z,41.20
2018-04-09T13:51:11.960Z,38.70
2018-04-09T13:53:38.249Z,37.20
2018-04-09T13:56:04.556Z,35.80
2018-04-09T13:58:31.982Z,36.70
2018-04-09T14:00:58.230Z,36.70
2018-04-09T14:03:24.498Z,36.40
2018-04-09T14:05:50.778Z,35.80
2018-04-09T14:08:17.320Z,35.80
2018-04-09T14:10:43.604Z,34.80
2018-04-09T14:13:09.941Z,34.60
2018-04-09T14:15:36.237Z,34.80
2018-04-09T14:18:03.298Z,33.50
2018-04-09T14:20:30.351Z,33.20
2018-04-09T14:22:56.654Z,33.10
2018-04-09T14:25:24.147Z,33.00
2018-04-09T14:27:50.488Z,34.10
2018-04-09T14:30:16.910Z,35.90
2018-04-09T14:32:43.165Z,37.70
2018-04-09T14:35:09.507Z,40.00
2018-04-09T14:37:35.787Z,41.20
2018-04-09T14:40:03.021Z,37.70
2018-04-09T14:42:29.313Z,37.60
2018-04-09T14:44:55.597Z,37.50
2018-04-09T14:47:22.633Z,36.80
2018-04-09T14:49:49.655Z,35.30
2018-04-09T14:52:15.909Z,35.20
2018-04-09T14:54:42.447Z,34.40
2018-04-09T14:57:09.522Z,32.00
2018-04-09T14:59:35.856Z,31.90
2018-04-09T15:02:02.466Z,30.80
2018-04-09T15:04:28.759Z,30.50
2018-04-09T15:06:55.075Z,30.80
2018-04-09T15:09:21.374Z,30.30
2018-04-09T15:11:48.447Z,31.30
2018-04-09T15:14:14.749Z,31.30
2018-04-09T15:16:41.807Z,33.80
2018-04-09T15:19:08.117Z,33.70
2018-04-09T15:21:35.163Z,31.80
2018-04-09T15:24:02.209Z,30.70
2018-04-09T15:26:29.272Z,30.10
2018-04-09T15:28:56.316Z,29.70
2018-04-09T15:31:23.374Z,29.00
2018-04-09T15:33:50.480Z,29.10
2018-04-09T15:36:16.744Z,29.10
2018-04-09T15:38:43.791Z,29.90
2018-04-09T15:41:11.623Z,29.50
2018-04-09T15:43:37.919Z,29.50
2018-04-09T15:46:04.401Z,29.40
2018-04-09T15:48:30.924Z,29.10
2018-04-09T15:50:57.221Z,28.80
2018-04-09T15:53:24.277Z,28.10
2018-04-09T15:55:50.593Z,28.00
2018-04-09T15:58:16.901Z,27.40
2018-04-09T16:00:44.008Z,27.10
2018-04-09T16:03:10.335Z,27.10
2018-04-09T16:05:36.601Z,27.10
2018-04-09T16:08:03.672Z,25.70
2018-04-09T16:10:30.020Z,25.60
2018-04-09T16:12:56.300Z,25.40
2018-04-09T16:15:22.856Z,25.40
2018-04-09T16:18:03.447Z,24.90
2018-04-09T16:20:29.963Z,24.80
2018-04-09T16:22:57.034Z,24.60
2018-04-09T16:25:23.377Z,24.60
2018-04-09T16:27:49.737Z,24.50
2018-04-09T16:30:16.033Z,24.20
2018-04-09T16:32:42.349Z,24.30
2018-04-09T16:35:08.661Z,24.60
2018-04-09T16:37:35.019Z,24.50
2018-04-09T16:40:02.048Z,24.30
2018-04-09T16:42:28.366Z,24.30
2018-04-09T16:44:54.697Z,24.20
2018-04-09T16:47:21.947Z,23.90
2018-04-09T16:49:48.310Z,23.90
2018-04-09T16:52:15.394Z,23.60
2018-04-09T16:54:41.770Z,23.60
2018-04-09T16:57:08.369Z,23.40
2018-04-09T16:59:34.731Z,23.20
2018-04-09T17:02:01.030Z,22.80
2018-04-09T17:04:27.435Z,22.50
2018-04-09T17:06:54.578Z,22.40
2018-04-09T17:09:21.634Z,22.40
2018-04-09T17:11:47.927Z,22.40
2018-04-09T17:14:14.284Z,22.30
2018-04-09T17:16:41.445Z,21.80
2018-04-09T17:19:08.665Z,21.60
2018-04-09T17:21:35.033Z,21.60
2018-04-09T17:24:02.114Z,21.40
2018-04-09T17:26:28.434Z,21.40
2018-04-09T17:28:54.882Z,21.30
2018-04-09T17:31:21.214Z,21.10
2018-04-09T17:33:47.522Z,20.90
2018-04-09T17:36:13.918Z,20.80
2018-04-09T17:38:40.960Z,20.30
2018-04-09T17:41:07.412Z,20.30
2018-04-09T17:43:33.700Z,20.20
2018-04-09T17:46:00.031Z,20.00
2018-04-09T17:48:26.327Z,19.80
2018-04-09T17:50:52.987Z,19.70
2018-04-09T17:53:19.329Z,19.50
2018-04-09T17:55:45.697Z,19.40
2018-04-09T17:58:12.058Z,19.30
2018-04-09T18:00:38.405Z,19.10
2018-04-09T18:05:37.830Z,18.90
2018-04-09T18:08:04.238Z,18.80
2018-04-09T18:10:30.540Z,18.70
2018-04-09T18:12:56.888Z,18.50
2018-04-09T18:15:23.913Z,18.30
2018-04-09T18:17:50.287Z,18.30
2018-04-09T18:20:16.719Z,18.20
2018-04-09T18:22:43.084Z,18.10
2018-04-09T18:25:09.452Z,18.00
2018-04-09T18:27:35.812Z,17.90
2018-04-09T18:30:02.227Z,17.80
2018-04-09T18:32:29.565Z,17.50
2018-04-09T18:34:55.865Z,17.50
2018-04-09T18:37:22.159Z,17.30
2018-04-09T18:39:49.240Z,17.10
2018-04-09T18:42:15.502Z,17.10
2018-04-09T18:44:41.841Z,17.00
2018-04-09T18:47:08.950Z,16.90
2018-04-09T18:49:35.292Z,16.90
2018-04-09T18:52:01.599Z,16.90
2018-04-09T18:54:27.912Z,16.80
2018-04-09T18:56:55.128Z,16.60
2018-04-09T18:59:21.422Z,16.60
2018-04-09T19:01:47.734Z,16.50
2018-04-09T19:04:14.027Z,16.50
2018-04-09T19:06:40.349Z,16.40
2018-04-09T19:09:06.644Z,16.30
2018-04-09T19:11:33.010Z,16.20
2018-04-09T19:13:59.300Z,16.10
2018-04-09T19:16:25.604Z,16.00
2018-04-09T19:18:52.649Z,15.80
2018-04-09T19:21:19.745Z,15.80
2018-04-09T19:23:46.299Z,15.80
2018-04-09T19:26:12.595Z,15.70
2018-04-09T19:28:38.997Z,15.60
2018-04-09T19:31:05.575Z,15.60
2018-04-09T19:33:31.940Z,15.60
2018-04-09T19:36:04.388Z,15.50
2018-04-09T19:38:36.859Z,15.50
2018-04-09T19:41:03.149Z,15.40
2018-04-09T19:43:30.207Z,15.30
2018-04-09T19:45:56.552Z,15.30
2018-04-09T19:48:22.833Z,15.20
2018-04-09T19:50:49.146Z,15.20
2018-04-09T19:53:15.567Z,15.20
2018-04-09T19:55:41.915Z,15.20
2018-04-09T19:58:08.235Z,15.10
2018-04-09T20:00:34.527Z,15.10
2018-04-09T20:03:01.665Z,15.00
2018-04-09T20:05:28.808Z,15.00
2018-04-09T20:07:55.875Z,14.90
2018-04-09T20:10:22.158Z,14.90
2018-04-09T20:12:48.434Z,14.90
2018-04-09T20:15:15.493Z,14.90
2018-04-09T20:17:41.755Z,14.80
2018-04-09T20:20:08.783Z,14.90
2018-04-09T20:22:35.071Z,14.90
2018-04-09T20:25:01.364Z,14.90
2018-04-09T20:27:27.727Z,14.90
2018-04-09T20:29:54.026Z,14.80
2018-04-09T20:32:20.307Z,14.80
2018-04-09T20:34:46.659Z,14.80
2018-04-09T20:37:12.981Z,14.80
2018-04-09T20:39:39.339Z,14.60
2018-04-09T20:42:05.715Z,14.60
2018-04-09T20:44:32.013Z,14.60
2018-04-09T20:46:58.327Z,14.40
2018-04-09T20:49:24.635Z,14.40
2018-04-09T20:51:50.966Z,14.30
2018-04-09T20:54:17.266Z,14.30
2018-04-09T20:56:43.528Z,14.30
2018-04-09T20:59:09.826Z,14.30
2018-04-09T21:01:36.121Z,14.20
2018-04-09T21:04:02.446Z,14.10
2018-04-09T21:06:28.756Z,14.00
2018-04-09T21:08:56.766Z,13.90
2018-04-09T21:11:23.118Z,13.90
2018-04-09T21:13:49.410Z,13.80
2018-04-09T21:16:15.748Z,13.70
2018-04-09T21:18:42.026Z,13.70
2018-04-09T21:21:09.074Z,13.60
2018-04-09T21:23:36.118Z,13.60
2018-04-09T21:26:03.222Z,13.50
2018-04-09T21:28:29.562Z,13.50
2018-04-09T21:30:55.855Z,13.50
2018-04-09T21:33:22.222Z,13.50
2018-04-09T21:35:48.531Z,13.50
2018-04-09T21:38:14.805Z,13.50
2018-04-09T21:40:41.107Z,13.50
2018-04-09T21:43:07.479Z,13.50
2018-04-09T21:45:33.867Z,13.50
2018-04-09T21:48:00.159Z,13.40
2018-04-09T21:50:27.227Z,13.30
2018-04-09T21:52:53.501Z,13.30
2018-04-09T21:55:19.801Z,13.30
2018-04-09T21:57:46.148Z,13.10
2018-04-09T22:00:13.183Z,13.00
2018-04-09T22:02:39.505Z,13.00
2018-04-09T22:05:05.839Z,13.00
2018-04-09T22:07:32.101Z,12.90
2018-04-09T22:09:58.405Z,12.90
2018-04-09T22:12:24.709Z,12.80
2018-04-09T22:14:50.985Z,12.80
2018-04-09T22:17:17.546Z,12.70
2018-04-09T22:19:43.926Z,12.70
2018-04-09T22:22:10.229Z,12.60
2018-04-09T22:24:37.284Z,12.60
2018-04-09T22:27:03.608Z,12.60
2018-04-09T22:29:30.660Z,12.50
2018-04-09T22:31:56.998Z,12.40
2018-04-09T22:34:23.310Z,12.40
2018-04-09T22:36:50.320Z,12.40
2018-04-09T22:39:16.606Z,12.40
2018-04-09T22:41:42.876Z,12.40
2018-04-09T22:44:09.190Z,12.40
2018-04-09T22:46:35.467Z,12.30
2018-04-09T22:49:01.750Z,12.20
2018-04-09T22:51:28.052Z,12.10
2018-04-09T22:53:55.098Z,12.10
2018-04-09T22:56:22.141Z,12.00
2018-04-09T22:58:49.174Z,11.90
2018-04-09T23:01:16.225Z,11.90
2018-04-09T23:03:43.284Z,11.90
2018-04-09T23:06:09.598Z,11.80
2018-04-09T23:08:35.874Z,11.80
2018-04-09T23:11:02.186Z,11.80
2018-04-09T23:13:28.509Z,11.70
2018-04-09T23:15:55.560Z,11.60
2018-04-09T23:18:22.596Z,11.60
2018-04-09T23:20:49.632Z,11.50
2018-04-09T23:23:15.918Z,11.50
2018-04-09T23:25:42.203Z,11.50
2018-04-09T23:28:09.269Z,11.40
2018-04-09T23:30:35.569Z,11.40
2018-04-09T23:33:01.921Z,11.40
2018-04-09T23:35:28.952Z,11.30
2018-04-09T23:37:55.257Z,11.30
2018-04-09T23:40:21.547Z,11.30
2018-04-09T23:42:47.834Z,11.30
2018-04-09T23:45:14.138Z,11.20
2018-04-09T23:47:40.447Z,11.10
2018-04-09T23:50:06.730Z,11.00
2018-04-09T23:52:33.056Z,11.00
2018-04-09T23:54:59.346Z,11.00
2018-04-09T23:57:25.680Z,11.00
2018-04-09T23:59:51.943Z,11.00
